createdAt,value
2018-05-02T00:00:36.748Z,14.65
2018-05-02T00:06:31.719Z,21.83
2018-05-02T00:12:26.764Z,19.24
2018-05-02T00:18:21.751Z,21.19
2018-05-02T00:24:16.748Z,16.11
2018-05-02T00:30:11.769Z,17.38
2018-05-02T00:36:06.741Z,14.54
2018-05-02T00:42:01.759Z,17.35
2018-05-02T00:47:56.728Z,16.61
2018-05-02T00:53:51.760Z,20.83
2018-05-02T00:59:46.762Z,20.78
2018-05-02T01:05:41.775Z,17.3
2018-05-02T01:11:36.724Z,15.89
2018-05-02T01:17:31.797Z,20.79
2018-05-02T01:23:26.774Z,21.33
2018-05-02T01:29:21.742Z,18.76
2018-05-02T01:35:16.801Z,15.94
2018-05-02T01:41:11.767Z,19.46
2018-05-02T01:47:06.758Z,16.69
2018-05-02T01:53:01.753Z,23.33
2018-05-02T01:58:56.759Z,17.23
2018-05-02T02:04:51.756Z,21.99
2018-05-02T02:10:46.777Z,19.87
2018-05-02T02:16:41.727Z,16.68
2018-05-02T02:22:36.763Z,20.81
2018-05-02T02:28:31.758Z,21.21
2018-05-02T02:34:26.730Z,21.83
2018-05-02T02:40:21.713Z,16.48
2018-05-02T02:46:16.761Z,21
2018-05-02T02:52:11.747Z,21.75
2018-05-02T02:58:06.742Z,21.26
2018-05-02T03:04:01.768Z,18.57
2018-05-02T03:09:56.741Z,20.77
2018-05-02T03:15:51.769Z,20.4
2018-05-02T03:21:46.751Z,18.03
2018-05-02T03:27:41.765Z,11.9
2018-05-02T03:33:36.737Z,17.14
2018-05-02T03:39:31.754Z,12.45
2018-05-02T03:45:26.743Z,7.56
2018-05-02T03:51:21.722Z,9.67
2018-05-02T03:57:16.750Z,12.79
2018-05-02T04:03:11.737Z,14.98
2018-05-02T04:09:06.709Z,12.55
2018-05-02T04:15:01.751Z,13.75
2018-05-02T04:20:56.729Z,10.99
2018-05-02T04:26:51.707Z,9.87
2018-05-02T04:32:46.721Z,11.54
2018-05-02T04:38:41.827Z,7.15
2018-05-02T04:44:36.744Z,8.97
2018-05-02T04:50:31.783Z,10.25
2018-05-02T04:56:26.752Z,8.09
2018-05-02T05:02:21.756Z,9.57
2018-05-02T05:08:16.745Z,8.41
2018-05-02T05:14:11.718Z,7.73
2018-05-02T05:20:06.749Z,8.02
2018-05-02T05:26:01.792Z,9.87
2018-05-02T05:31:56.730Z,13
2018-05-02T05:37:51.734Z,11.59
2018-05-02T05:43:46.746Z,11.41
2018-05-02T05:49:41.754Z,10.29
2018-05-02T05:55:36.712Z,14
2018-05-02T06:01:31.728Z,15.44
2018-05-02T06:07:26.748Z,13.57
2018-05-02T06:13:21.755Z,11.3
2018-05-02T06:19:16.798Z,14.64
2018-05-02T06:25:11.783Z,10.32
2018-05-02T06:31:06.736Z,4.25
2018-05-02T06:37:01.760Z,11.67
2018-05-02T06:42:56.749Z,6.06
2018-05-02T06:48:51.740Z,5.19
2018-05-02T06:54:46.769Z,4.35
2018-05-02T07:00:41.718Z,3.65
2018-05-02T07:06:36.766Z,2.74
2018-05-02T07:12:31.756Z,3.05
2018-05-02T07:18:26.741Z,1.93
2018-05-02T07:24:21.743Z,4.93
2018-05-02T07:30:16.780Z,2.85
2018-05-02T07:36:11.722Z,2.95
2018-05-02T07:42:06.845Z,3.01
2018-05-02T07:48:01.753Z,2.61
2018-05-02T07:53:56.768Z,5.94
2018-05-02T07:59:51.717Z,5.02
2018-05-02T08:05:46.760Z,9.1
2018-05-02T08:11:41.729Z,6.64
2018-05-02T08:17:36.718Z,3.73
2018-05-02T08:23:31.773Z,4.25
2018-05-02T08:29:26.745Z,7.63
2018-05-02T08:35:21.699Z,2.55
2018-05-02T08:41:16.703Z,7.4
2018-05-02T08:47:11.802Z,8.53
2018-05-02T08:53:06.709Z,4.22
2018-05-02T08:59:01.747Z,4.21
2018-05-02T09:04:56.751Z,6.05
2018-05-02T09:10:51.759Z,6.25
2018-05-02T09:16:46.714Z,6.19
2018-05-02T09:22:41.744Z,5.71
2018-05-02T09:28:36.754Z,8.07
2018-05-02T09:34:31.747Z,6.4
2018-05-02T09:40:26.794Z,3.66
2018-05-02T09:46:21.771Z,6.57
2018-05-02T09:52:16.736Z,5.68
2018-05-02T09:58:11.749Z,11.52
2018-05-02T10:04:06.773Z,9.07
2018-05-02T10:10:01.759Z,11.42
2018-05-02T10:15:56.735Z,5.22
2018-05-02T10:21:51.813Z,7.68
2018-05-02T10:27:46.765Z,8.46
2018-05-02T10:33:41.747Z,7.72
2018-05-02T10:39:36.731Z,9.09
2018-05-02T10:45:31.732Z,4.96
2018-05-02T10:51:26.758Z,8.56
2018-05-02T10:57:21.751Z,7.78
2018-05-02T11:03:16.802Z,7.5
2018-05-02T11:09:11.733Z,11.22
2018-05-02T11:15:06.743Z,8.53
2018-05-02T11:21:01.738Z,5.43
2018-05-02T11:26:56.734Z,7.45
2018-05-02T11:32:51.798Z,9.94
2018-05-02T11:38:46.751Z,8.58
2018-05-02T11:44:41.738Z,8.43
2018-05-02T11:50:36.771Z,11.34
2018-05-02T11:56:31.696Z,11.78
2018-05-02T12:02:26.732Z,16.48
2018-05-02T12:08:21.732Z,10.37
2018-05-02T12:14:16.745Z,8.13
2018-05-02T12:20:11.760Z,9.33
2018-05-02T12:26:06.733Z,11.19
2018-05-02T12:32:01.734Z,11.26
2018-05-02T12:37:56.745Z,9.47
2018-05-02T12:43:51.743Z,11.61
2018-05-02T12:49:46.769Z,11.61
2018-05-02T12:55:41.793Z,16.28
2018-05-02T13:01:36.764Z,11.16
2018-05-02T13:07:31.732Z,11.85
2018-05-02T13:13:26.721Z,15.88
2018-05-02T13:19:21.728Z,13.48
2018-05-02T13:25:16.718Z,16.88
2018-05-02T13:31:11.737Z,11.13
2018-05-02T13:37:06.755Z,9.69
2018-05-02T13:43:01.724Z,12.5
2018-05-02T13:48:56.750Z,10.77
2018-05-02T13:54:51.766Z,15.1
2018-05-02T14:00:46.767Z,12.89
2018-05-02T14:06:41.795Z,9.8
2018-05-02T14:12:36.717Z,12.26
2018-05-02T14:18:31.726Z,15.26
2018-05-02T14:24:26.801Z,12.07
2018-05-02T14:30:21.778Z,11.66
2018-05-02T14:36:16.807Z,14.23
2018-05-02T14:42:11.820Z,11.08
2018-05-02T14:48:06.786Z,13.47
2018-05-02T14:54:01.830Z,13.68
2018-05-02T14:59:56.818Z,12.86
2018-05-02T15:05:51.736Z,12.9
2018-05-02T15:11:46.771Z,13.69
2018-05-02T15:17:41.722Z,16.32
2018-05-02T15:23:36.712Z,14.13
2018-05-02T15:29:31.729Z,11.11
2018-05-02T15:35:26.725Z,12.79
2018-05-02T15:41:21.813Z,11.4
2018-05-02T15:47:16.720Z,10.04
2018-05-02T15:53:11.745Z,11.35
2018-05-02T15:59:06.789Z,9.23
2018-05-02T16:05:01.761Z,12.03
2018-05-02T16:10:56.739Z,12.99
2018-05-02T16:16:51.699Z,11.27
2018-05-02T16:22:46.728Z,13.05
2018-05-02T16:28:41.723Z,15.01
2018-05-02T16:34:36.747Z,14.04
2018-05-02T16:40:31.754Z,9.7
2018-05-02T16:46:26.772Z,18.26
2018-05-02T16:52:21.824Z,21.53
2018-05-02T16:58:16.725Z,11.36
2018-05-02T17:04:11.817Z,11.78
2018-05-02T17:10:06.729Z,13.53
2018-05-02T17:16:01.728Z,10.69
2018-05-02T17:21:56.717Z,12.13
2018-05-02T17:27:51.714Z,10.47
2018-05-02T17:33:46.817Z,14.96
2018-05-02T17:39:41.752Z,11.39
2018-05-02T17:45:36.799Z,10.49
2018-05-02T17:51:31.751Z,15
2018-05-02T17:57:26.782Z,15.63
2018-05-02T18:03:21.763Z,13.65
2018-05-02T18:09:16.739Z,11.87
2018-05-02T18:15:11.743Z,18.16
2018-05-02T18:21:06.736Z,11.22
2018-05-02T18:27:01.755Z,12.47
2018-05-02T18:32:56.763Z,15.27
2018-05-02T18:38:51.787Z,16.93
2018-05-02T18:44:46.735Z,22.33
2018-05-02T18:50:41.720Z,24.73
2018-05-02T18:56:36.747Z,15.58
2018-05-02T19:02:31.725Z,29.18
2018-05-02T19:08:26.726Z,19.26
2018-05-02T19:14:21.757Z,17.88
2018-05-02T19:20:16.739Z,15.16
2018-05-02T19:26:11.722Z,14.4
2018-05-02T19:32:06.736Z,30.89
2018-05-02T19:38:01.755Z,22.15
2018-05-02T19:43:56.729Z,17.55
2018-05-02T19:49:51.751Z,20.35
2018-05-02T19:55:46.762Z,16.91
2018-05-02T20:01:41.757Z,17.51
2018-05-02T20:07:36.748Z,22.6
2018-05-02T20:13:31.754Z,15.98
2018-05-02T20:19:26.720Z,17.18
2018-05-02T20:25:21.894Z,21.58
2018-05-02T20:31:16.736Z,19.62
2018-05-02T20:37:11.746Z,18.98
2018-05-02T20:43:06.710Z,19.85
2018-05-02T20:49:01.754Z,24.11
2018-05-02T20:54:56.849Z,19.11
2018-05-02T21:00:51.763Z,19.42
2018-05-02T21:06:46.766Z,20.28
2018-05-02T21:12:41.771Z,18.62
2018-05-02T21:18:36.767Z,19.27
2018-05-02T21:24:31.740Z,41.3
2018-05-02T21:30:26.788Z,20.5
2018-05-02T21:36:21.794Z,18.93
2018-05-02T21:42:16.739Z,20.09
2018-05-02T21:48:11.763Z,19.21
2018-05-02T21:54:06.769Z,20.48
2018-05-02T22:00:01.746Z,20.15
2018-05-02T22:05:56.734Z,17.14
2018-05-02T22:11:51.730Z,18.64
2018-05-02T22:17:46.748Z,17.35
2018-05-02T22:23:41.764Z,19.62
2018-05-02T22:29:36.732Z,18.16
2018-05-02T22:35:31.736Z,23.43
2018-05-02T22:41:26.751Z,16.72
2018-05-02T22:47:21.715Z,19.39
2018-05-02T22:53:16.746Z,22.78
2018-05-02T22:59:11.774Z,13.54
2018-05-02T23:05:06.766Z,19.12
2018-05-02T23:11:01.772Z,28.76
2018-05-02T23:16:56.748Z,22.67
2018-05-02T23:22:51.721Z,20.67
2018-05-02T23:28:46.748Z,22
2018-05-02T23:34:41.745Z,17.27
2018-05-02T23:40:36.774Z,20.05
2018-05-02T23:46:31.755Z,19.06
2018-05-02T23:52:26.750Z,20.4
2018-05-02T23:58:21.798Z,18.59
